createdAt,value
2019-03-20T00:00:13.384Z,7.72
2019-03-20T00:05:20.231Z,7.75
2019-03-20T00:10:25.758Z,8.17
2019-03-20T00:15:30.966Z,8.75
2019-03-20T00:20:37.173Z,8.77
2019-03-20T00:25:42.502Z,8.68
2019-03-20T00:30:48.879Z,7.97
2019-03-20T00:35:54.144Z,8.60
2019-03-20T00:41:00.424Z,10.93
2019-03-20T00:46:05.668Z,9.35
2019-03-20T00:51:10.863Z,9.33
2019-03-20T00:56:17.273Z,9.70
2019-03-20T01:01:22.503Z,9.48
2019-03-20T01:06:27.855Z,8.55
2019-03-20T01:11:33.247Z,8.60
2019-03-20T01:16:39.502Z,8.80
2019-03-20T01:21:44.696Z,8.10
2019-03-20T01:26:49.910Z,7.50
2019-03-20T01:31:55.107Z,8.00
2019-03-20T01:37:00.738Z,8.13
2019-03-20T01:42:06.035Z,8.30
2019-03-20T01:47:11.245Z,7.40
2019-03-20T01:52:16.515Z,7.93
2019-03-20T01:57:22.327Z,7.10
2019-03-20T02:02:27.527Z,7.60
2019-03-20T02:07:32.735Z,6.92
2019-03-20T02:12:38.079Z,9.40
2019-03-20T02:17:43.279Z,11.13
2019-03-20T02:22:48.493Z,11.70
2019-03-20T02:27:53.696Z,11.90
2019-03-20T02:32:58.924Z,10.75
2019-03-20T02:38:04.628Z,11.15
2019-03-20T02:43:09.837Z,9.30
2019-03-20T02:48:15.133Z,8.93
2019-03-20T02:53:20.447Z,8.98
2019-03-20T02:58:25.646Z,8.10
2019-03-20T03:03:30.931Z,9.13
2019-03-20T03:08:36.217Z,8.63
2019-03-20T03:13:41.409Z,7.97
2019-03-20T03:18:46.607Z,7.72
2019-03-20T03:23:51.915Z,7.63
2019-03-20T03:28:57.186Z,7.63
2019-03-20T03:34:02.481Z,7.03
2019-03-20T03:39:08.460Z,7.70
2019-03-20T03:44:13.924Z,6.67
2019-03-20T03:49:19.166Z,7.20
2019-03-20T03:54:24.402Z,7.10
2019-03-20T03:59:29.722Z,6.70
2019-03-20T04:04:34.934Z,6.62
2019-03-20T04:09:40.139Z,6.97
2019-03-20T04:14:45.331Z,6.55
2019-03-20T04:19:50.760Z,6.08
2019-03-20T04:24:56.022Z,6.10
2019-03-20T04:30:01.221Z,5.95
2019-03-20T04:35:06.718Z,6.17
2019-03-20T04:40:12.254Z,6.65
2019-03-20T04:45:17.443Z,6.50
2019-03-20T04:50:22.949Z,6.40
2019-03-20T04:55:28.506Z,6.17
2019-03-20T05:00:33.703Z,6.30
2019-03-20T05:05:39.069Z,6.10
2019-03-20T05:10:44.260Z,5.90
2019-03-20T05:15:49.525Z,6.57
2019-03-20T05:20:55.189Z,6.40
2019-03-20T05:26:00.556Z,5.83
2019-03-20T05:31:05.756Z,6.37
2019-03-20T05:36:11.106Z,6.30
2019-03-20T05:41:16.507Z,7.03
2019-03-20T05:46:22.109Z,6.83
2019-03-20T05:51:27.359Z,6.70
2019-03-20T05:56:32.648Z,6.53
2019-03-20T06:01:37.877Z,6.72
2019-03-20T06:06:43.219Z,7.40
2019-03-20T06:11:48.534Z,7.85
2019-03-20T06:16:53.750Z,8.48
2019-03-20T06:21:59.090Z,7.70
2019-03-20T06:27:04.407Z,6.95
2019-03-20T06:32:09.614Z,7.00
2019-03-20T06:37:14.974Z,6.55
2019-03-20T06:42:20.241Z,30.40
2019-03-20T06:47:25.719Z,24.33
2019-03-20T06:52:31.013Z,8.47
2019-03-20T06:57:36.251Z,7.33
2019-03-20T07:02:44.438Z,6.58
2019-03-20T07:07:49.505Z,5.67
2019-03-20T07:12:54.916Z,5.80
2019-03-20T07:18:00.249Z,6.85
2019-03-20T07:23:05.734Z,9.85
2019-03-20T07:28:11.035Z,7.30
2019-03-20T07:33:17.142Z,6.20
2019-03-20T07:38:22.602Z,6.72
2019-03-20T07:43:27.958Z,7.17
2019-03-20T07:48:33.507Z,7.00
2019-03-20T07:53:38.879Z,6.93
2019-03-20T07:58:44.361Z,6.60
2019-03-20T08:03:49.554Z,7.30
2019-03-20T08:08:54.758Z,6.80
2019-03-20T08:14:00.158Z,7.33
2019-03-20T08:19:05.503Z,7.10
2019-03-20T08:24:10.722Z,6.53
2019-03-20T08:29:16.087Z,6.83
2019-03-20T08:34:21.330Z,6.80
2019-03-20T08:39:26.739Z,7.15
2019-03-20T08:44:32.011Z,7.60
2019-03-20T08:49:37.396Z,6.80
2019-03-20T08:54:42.636Z,6.90
2019-03-20T08:59:47.937Z,6.95
2019-03-20T09:04:54.293Z,6.72
2019-03-20T09:09:59.666Z,6.92
2019-03-20T09:15:05.087Z,7.08
2019-03-20T09:20:15.365Z,6.50
2019-03-20T09:25:20.608Z,6.72
2019-03-20T09:30:25.864Z,6.87
2019-03-20T09:35:31.224Z,6.20
2019-03-20T09:40:36.816Z,6.05
2019-03-20T09:45:42.094Z,5.77
2019-03-20T09:50:47.307Z,5.37
2019-03-20T09:55:52.521Z,4.90
2019-03-20T10:00:57.879Z,4.90
2019-03-20T10:06:03.164Z,7.27
2019-03-20T10:11:08.390Z,5.92
2019-03-20T10:16:13.590Z,4.28
2019-03-20T10:21:19.143Z,2.80
2019-03-20T10:26:24.422Z,2.87
2019-03-20T10:31:29.716Z,3.10
2019-03-20T10:36:34.912Z,3.20
2019-03-20T10:41:40.130Z,3.00
2019-03-20T10:46:46.393Z,3.60
2019-03-20T10:51:51.744Z,2.98
2019-03-20T10:56:57.194Z,2.62
2019-03-20T11:02:02.739Z,3.33
2019-03-20T11:07:08.122Z,3.23
2019-03-20T11:12:13.328Z,2.90
2019-03-20T11:17:18.541Z,9.47
2019-03-20T11:22:24.720Z,2.50
2019-03-20T11:27:29.929Z,2.50
2019-03-20T11:32:35.279Z,2.67
2019-03-20T11:37:40.499Z,2.30
2019-03-20T11:42:46.018Z,2.30
2019-03-20T11:47:51.274Z,2.42
2019-03-20T11:52:56.534Z,2.35
2019-03-20T11:58:01.745Z,2.47
2019-03-20T12:03:07.080Z,2.52
2019-03-20T12:08:12.291Z,2.60
2019-03-20T12:13:17.551Z,2.30
2019-03-20T12:18:22.908Z,2.10
2019-03-20T12:23:28.218Z,2.20
2019-03-20T12:28:33.417Z,2.57
2019-03-20T12:33:38.675Z,2.30
2019-03-20T12:38:43.995Z,2.20
2019-03-20T12:43:49.484Z,2.60
2019-03-20T12:48:54.733Z,2.20
2019-03-20T12:54:00.017Z,2.70
2019-03-20T12:59:05.206Z,2.20
2019-03-20T13:04:10.818Z,2.50
2019-03-20T13:09:16.608Z,2.30
2019-03-20T13:14:22.042Z,2.40
2019-03-20T13:19:27.274Z,2.42
2019-03-20T13:24:32.854Z,2.30
2019-03-20T13:29:38.141Z,2.30
2019-03-20T13:34:43.823Z,2.10
2019-03-20T13:39:50.439Z,2.10
2019-03-20T13:44:55.735Z,2.17
2019-03-20T13:50:00.986Z,2.30
2019-03-20T13:55:06.711Z,2.20
2019-03-20T14:00:15.153Z,1.98
2019-03-20T14:05:20.987Z,2.05
2019-03-20T14:10:26.508Z,2.02
2019-03-20T14:15:31.806Z,2.00
2019-03-20T14:20:37.132Z,2.00
2019-03-20T14:25:42.679Z,2.20
2019-03-20T14:30:48.048Z,2.25
2019-03-20T14:35:53.286Z,2.10
2019-03-20T14:40:58.573Z,2.30
2019-03-20T14:46:03.805Z,2.08
2019-03-20T14:51:09.121Z,2.30
2019-03-20T14:56:14.622Z,2.00
2019-03-20T15:01:20.812Z,1.92
2019-03-20T15:06:26.054Z,2.12
2019-03-20T15:11:31.277Z,2.60
2019-03-20T15:16:36.672Z,2.50
2019-03-20T15:21:41.999Z,2.33
2019-03-20T15:26:47.279Z,2.50
2019-03-20T15:31:52.510Z,2.10
2019-03-20T15:36:57.799Z,2.47
2019-03-20T15:42:03.032Z,2.40
2019-03-20T15:47:09.261Z,2.10
2019-03-20T15:52:14.492Z,2.37
2019-03-20T15:57:20.049Z,2.00
2019-03-20T16:02:25.315Z,2.30
2019-03-20T16:07:30.648Z,2.52
2019-03-20T16:12:35.890Z,2.47
2019-03-20T16:17:41.248Z,2.15
2019-03-20T16:22:46.614Z,2.45
2019-03-20T16:27:51.958Z,2.12
2019-03-20T16:32:57.251Z,2.60
2019-03-20T16:38:02.515Z,3.10
2019-03-20T16:43:08.481Z,4.12
2019-03-20T16:48:13.927Z,2.83
2019-03-20T16:53:19.187Z,2.62
2019-03-20T16:58:24.468Z,2.87
2019-03-20T17:03:30.723Z,2.02
2019-03-20T17:08:35.939Z,3.00
2019-03-20T17:13:41.455Z,4.05
2019-03-20T17:18:47.715Z,5.53
2019-03-20T17:23:52.924Z,12.65
2019-03-20T17:28:58.126Z,2.92
2019-03-20T17:34:03.333Z,2.20
2019-03-20T17:39:10.007Z,2.77
2019-03-20T17:44:15.306Z,3.67
2019-03-20T17:49:20.833Z,5.55
2019-03-20T17:54:26.207Z,7.10
2019-03-20T17:59:31.498Z,5.42
2019-03-20T18:04:36.757Z,3.80
2019-03-20T18:09:41.940Z,2.85
2019-03-20T18:14:47.246Z,2.50
2019-03-20T18:19:52.450Z,2.80
2019-03-20T18:24:57.747Z,2.90
2019-03-20T18:30:02.969Z,3.45
2019-03-20T18:35:08.503Z,3.17
2019-03-20T18:40:15.148Z,3.80
2019-03-20T18:45:20.825Z,4.78
2019-03-20T18:50:26.142Z,4.50
2019-03-20T18:55:32.437Z,5.78
2019-03-20T19:00:37.741Z,5.50
2019-03-20T19:05:49.588Z,6.95
2019-03-20T19:10:54.972Z,9.10
2019-03-20T19:16:01.906Z,8.45
2019-03-20T19:21:07.635Z,8.25
2019-03-20T19:26:12.897Z,13.55
2019-03-20T19:31:18.098Z,13.25
2019-03-20T19:36:23.396Z,14.97
2019-03-20T19:41:28.866Z,13.15
2019-03-20T19:46:34.210Z,13.58
2019-03-20T19:51:39.570Z,13.50
2019-03-20T19:56:46.278Z,13.38
2019-03-20T20:01:51.505Z,12.60
2019-03-20T20:06:56.741Z,11.05
2019-03-20T20:12:02.029Z,12.13
2019-03-20T20:17:07.835Z,11.70
2019-03-20T20:22:14.256Z,10.93
2019-03-20T20:27:20.605Z,9.15
2019-03-20T20:32:26.074Z,9.50
2019-03-20T20:37:31.643Z,9.23
2019-03-20T20:42:43.047Z,9.18
2019-03-20T20:47:44.145Z,9.03
2019-03-20T20:52:49.492Z,12.25
2019-03-20T20:57:54.813Z,7.50
2019-03-20T21:03:00.150Z,9.13
2019-03-20T21:08:05.360Z,11.40
2019-03-20T21:13:11.241Z,12.57
2019-03-20T21:18:57.408Z,16.80
2019-03-20T21:24:30.303Z,13.80
2019-03-20T21:30:07.819Z,10.65
2019-03-20T21:36:06.008Z,13.20
2019-03-20T21:42:07.336Z,12.50
2019-03-20T21:47:34.088Z,13.22
2019-03-20T21:52:40.067Z,18.27
2019-03-20T21:58:01.574Z,22.00
2019-03-20T22:03:07.569Z,17.67
2019-03-20T22:08:13.892Z,20.12
2019-03-20T22:13:29.543Z,17.17
2019-03-20T22:19:24.424Z,15.10
2019-03-20T22:25:03.207Z,16.60
2019-03-20T22:30:09.700Z,16.93
2019-03-20T22:35:44.455Z,13.73
2019-03-20T22:41:31.126Z,13.30
2019-03-20T22:47:31.775Z,15.10
2019-03-20T22:53:09.036Z,15.18
2019-03-20T22:58:47.052Z,14.35
2019-03-20T23:03:57.881Z,13.80
2019-03-20T23:09:05.552Z,13.88
2019-03-20T23:14:13.643Z,13.17
2019-03-20T23:19:19.793Z,12.40
2019-03-20T23:24:25.919Z,12.73
2019-03-20T23:29:33.074Z,12.53
2019-03-20T23:34:39.730Z,12.65
2019-03-20T23:39:46.035Z,11.35
2019-03-20T23:44:52.516Z,12.33
2019-03-20T23:49:58.620Z,11.93
2019-03-20T23:55:05.948Z,11.48
